RLSO2: Arkansas River, Ralston, OK

Data processed at Fri Dec 08 2017 23:20


All information presented herein is the property of the government of the United States of America and may be revised or deleted at any time without prior notice.
Dissemination of this information without the expressed written consent of the Public Affairs Office, Tulsa District U.S. Army Corps of Engineers is strictly prohibited.
These data are gathered electronically and, as presented, have not undergone any form of quality control. These data are not guaranteed to be valid or correct.
Go to home page.
Go to station list.

Upstream stations:

Downstream station:
Previous Day
Next Day
Current Day
    
SHEF ID:       RLSO2     Arkansas River at Ralston, OK
STATION TYPE:  

               PRECIP     STAGE  RIV-FLOW  BAT-LOAD
                   in        ft       cfs      volt
              Ccp-Rev   Ccp-Rev   Ccp-Rev   Ccp-Rev
(US/Central)
12/06 00:00      0.00      3.27       466     12.49
12/06 01:00      0.00      3.27       466     12.49
12/06 02:00      0.00      3.27       466     12.49
12/06 03:00      0.00      3.27       466     12.41
12/06 04:00      0.00      3.27       466     12.41
12/06 05:00      0.00      3.27       466     12.41
12/06 06:00      0.00      3.27       466     12.41
12/06 07:00      0.00      3.27       466     12.41
12/06 08:00      0.00      3.26       456     12.41
12/06 09:00      0.00      3.26       456     12.41
12/06 10:00      0.00      3.22       419     12.97
12/06 11:00      0.00      3.24       437     13.29
12/06 12:00      0.00      3.18       382     13.92
12/06 13:00      0.00      3.19       391     14.00
12/06 14:00      0.00      3.16       365     13.92
12/06 15:00      0.00      3.15       356     13.92
12/06 16:00      0.00      3.14       347     13.68
12/06 17:00      0.00      3.19       391     13.53
12/06 18:00      0.00      3.24       437     13.29
12/06 19:00      0.00      3.23       428     12.89
12/06 20:00      0.00      3.23       428     12.65
12/06 21:00      0.00      3.23       428     12.57
12/06 22:00      0.00      3.23       428     12.57
12/06 23:00      0.00      3.24       437     12.57